< < Back
Terminal Aerodrome Forecast


Current Version              Previous Versions:   1  2  3  4  5  6  7  8  9  

Terminal Aerodrome Forecast

031
FTUS44 KBMX 030605 AAA
TAFMGM
TAF AMD
KMGM 030605Z 0306/0406 00000KT P6SM OVC003
     FM031000 VRB02KT 4SM BR VCSH BKN008
     FM031500 22004KT P6SM VCSH BKN015
     FM031800 28009KT P6SM VCSH BKN060
     FM040000 30007KT P6SM BKN250=

Latest METAR

530
SAUS80 KWBC 030800 RRA
MTRMGM
METAR KMGM 030753Z AUTO 27007KT 9SM OVC004 21/18 A2990 RMK AO2 CIG
003V009 SLP123 T02060183


USA.gov is the U.S. government's official web portal to all federal, state and local government web resources and services.